Terminal Aerodrome Forecast
Issued by NWS

Home | Current Version | Previous Version | Graphics & Text | Print | Product List | Glossary On
Versions: 1 2 3 4 5 6 7 8 9 10 11 12 13 14 15 16 17 18 19 20 21 22 23 24 25 26 27 28 29 30 31 32 33 34 35 36 37
210
FTUS43 KLOT 251416 AAA
TAFORD
TAF AMD
KORD 251416Z 2514/2618 20008KT P6SM SCT120 BKN250
     FM251800 16010KT P6SM SCT040 BKN250
     FM252000 16011KT P6SM VCSH SCT040 BKN200
      TEMPO 2522/2602 4SM TSRA SCT030 OVC040CB
     FM260200 18008KT P6SM SCT080 BKN250 PROB30 2606/2612 5SM TSRA
      BR OVC040CB=

USA.gov is the U.S. government's official web portal to all federal, state and local government web resources and services.